Time;durP1;ratioP1;P1;durP2;ratioP2;P2;SDS_P1;SDS_P2;PMS_P1;PMS_P2;Temp;Humidity;BMP_temperature;BMP_pressure;BME280_temperature;BME280_humidity;BME280_pressure;Samples;Min_cycle;Max_cycle;Signal;HPM_P1;HPM_P2
2022/12/28 00:02:23;;;;;;;11.05;5.13;;;5.80;94.90;;;;;;5051240;28;20047;-75
2022/12/28 00:04:49;;;;;;;9.45;5.10;;;5.90;95.10;;;;;;5051276;28;20033;-76
2022/12/28 00:07:14;;;;;;;9.10;4.90;;;5.90;94.90;;;;;;5051270;28;20033;-76
2022/12/28 00:09:40;;;;;;;12.45;6.25;;;5.90;95.00;;;;;;5051297;28;20069;-76
2022/12/28 00:12:06;;;;;;;11.30;4.93;;;5.90;94.90;;;;;;5051480;28;20056;-79
2022/12/28 00:14:32;;;;;;;11.85;4.95;;;6.00;94.90;;;;;;5034817;28;20489;-75
2022/12/28 00:16:57;;;;;;;11.18;5.80;;;6.00;94.70;;;;;;5071334;28;20416;-77
2022/12/28 00:19:23;;;;;;;14.23;6.75;;;6.00;94.70;;;;;;5071615;28;20056;-75
2022/12/28 00:21:51;;;;;;;12.68;5.43;;;6.00;94.70;;;;;;5071434;28;20037;-77
2022/12/28 00:24:23;;;;;;;10.00;6.10;;;6.00;94.60;;;;;;5071084;28;20101;-77
2022/12/28 00:26:49;;;;;;;9.00;6.43;;;6.00;94.70;;;;;;5071214;28;20115;-75
2022/12/28 00:29:15;;;;;;;18.15;6.53;;;6.00;94.70;;;;;;5054729;28;20040;-76
2022/12/28 00:31:41;;;;;;;13.00;6.18;;;6.00;94.80;;;;;;5066753;28;20043;-78
2022/12/28 00:34:07;;;;;;;13.07;6.70;;;6.00;94.80;;;;;;5038599;28;20037;-77
2022/12/28 00:36:33;;;;;;;13.40;6.22;;;6.00;94.80;;;;;;5051138;28;20440;-78
2022/12/28 00:38:59;;;;;;;10.95;6.07;;;5.90;94.90;;;;;;5034819;28;20041;-79
2022/12/28 00:41:24;;;;;;;11.05;5.90;;;6.00;94.70;;;;;;5051014;28;20513;-76
2022/12/28 00:43:50;;;;;;;24.48;13.88;;;6.00;94.60;;;;;;5035156;28;20044;-76
2022/12/28 00:46:16;;;;;;;20.92;10.93;;;6.10;94.60;;;;;;5054546;28;20062;-73
2022/12/28 00:48:42;;;;;;;26.48;13.18;;;6.00;94.60;;;;;;5062698;28;20119;-77
2022/12/28 00:51:13;;;;;;;37.22;18.70;;;6.00;94.60;;;;;;5074405;28;20036;-76
2022/12/28 00:53:39;;;;;;;26.30;16.65;;;6.00;94.70;;;;;;5073911;28;20122;-74
2022/12/28 00:56:11;;;;;;;16.17;8.68;;;6.00;94.80;;;;;;5073025;28;20489;-76
2022/12/28 00:58:36;;;;;;;13.85;9.63;;;6.00;94.80;;;;;;5072782;28;20237;-75
2022/12/28 01:01:04;;;;;;;18.63;13.30;;;6.00;94.80;;;;;;5072763;28;20074;-75
2022/12/28 01:03:30;;;;;;;15.48;8.20;;;6.10;94.80;;;;;;5071118;28;20319;-77
2022/12/28 01:05:55;;;;;;;13.98;9.52;;;6.10;94.90;;;;;;5071165;28;20082;-76
2022/12/28 01:08:21;;;;;;;11.45;7.32;;;6.00;95.00;;;;;;5056221;28;20393;-74
2022/12/28 01:10:47;;;;;;;12.93;7.20;;;6.00;95.20;;;;;;5074117;28;20047;-75
2022/12/28 01:13:12;;;;;;;14.48;7.53;;;6.00;95.00;;;;;;5074036;28;20047;-78
2022/12/28 01:15:38;;;;;;;14.90;8.30;;;6.10;95.20;;;;;;5074353;28;20045;-74
2022/12/28 01:18:04;;;;;;;10.38;6.07;;;6.00;95.10;;;;;;5040517;28;20053;-75
2022/12/28 01:20:31;;;;;;;11.35;7.22;;;6.10;95.20;;;;;;5066356;28;20131;-75
2022/12/28 01:22:57;;;;;;;11.82;6.95;;;6.10;95.30;;;;;;5053727;28;20045;-76
2022/12/28 01:25:22;;;;;;;17.88;7.43;;;6.10;95.20;;;;;;5053758;28;20171;-75
2022/12/28 01:27:48;;;;;;;16.42;7.63;;;6.10;95.50;;;;;;5053778;28;20073;-77
2022/12/28 01:30:14;;;;;;;14.07;7.43;;;6.10;95.50;;;;;;5037130;28;20133;-77
2022/12/28 01:32:40;;;;;;;12.20;7.68;;;6.10;95.40;;;;;;5053830;28;20036;-75
2022/12/28 01:35:06;;;;;;;12.75;8.20;;;6.10;95.70;;;;;;5053643;28;20551;-77
2022/12/28 01:37:32;;;;;;;14.25;8.43;;;6.10;95.70;;;;;;5052987;28;20098;-75
2022/12/28 01:39:58;;;;;;;14.57;9.20;;;6.10;95.80;;;;;;5053732;28;20041;-75
2022/12/28 01:42:24;;;;;;;13.85;8.35;;;6.00;96.10;;;;;;5020488;28;20040;-77
2022/12/28 01:44:51;;;;;;;14.82;9.73;;;6.00;96.20;;;;;;5053422;28;20476;-76
2022/12/28 01:47:28;;;;;;;15.45;7.97;;;6.00;96.40;;;;;;5053382;28;20041;-78
2022/12/28 01:49:59;;;;;;;16.63;9.55;;;5.90;96.60;;;;;;5053400;28;20048;-77
2022/12/28 01:52:34;;;;;;;31.83;17.20;;;6.00;96.70;;;;;;5053064;28;20119;-74
2022/12/28 01:55:03;;;;;;;18.95;10.38;;;6.00;96.80;;;;;;5052135;28;20518;-75
2022/12/28 01:57:41;;;;;;;15.43;8.90;;;6.00;96.80;;;;;;5052886;28;20045;-77
2022/12/28 02:00:10;;;;;;;13.13;9.18;;;6.00;96.50;;;;;;5053248;28;20090;-73
2022/12/28 02:02:37;;;;;;;14.90;10.63;;;6.10;96.70;;;;;;5053028;28;20045;-77
2022/12/28 02:05:04;;;;;;;14.00;9.60;;;6.10;96.80;;;;;;5052866;28;20086;-79
2022/12/28 02:07:51;;;;;;;14.95;10.35;;;6.10;96.90;;;;;;5053311;28;20504;-76
2022/12/28 02:10:19;;;;;;;13.48;10.05;;;6.10;96.90;;;;;;5052966;28;20035;-74
2022/12/28 02:12:45;;;;;;;20.17;13.30;;;6.20;96.60;;;;;;5043856;28;20131;-75
2022/12/28 02:15:11;;;;;;;22.67;13.90;;;6.20;96.80;;;;;;5072784;28;20040;-77
2022/12/28 02:17:36;;;;;;;20.38;12.27;;;6.20;97.00;;;;;;5072614;28;20067;-76
2022/12/28 02:20:03;;;;;;;20.80;12.60;;;6.20;96.90;;;;;;5056152;28;20063;-78
2022/12/28 02:23:06;;;;;;;19.63;13.10;;;6.20;96.80;;;;;;5022873;28;20048;-77
2022/12/28 02:26:10;;;;;;;25.27;13.63;;;6.30;97.00;;;;;;5072812;28;20131;-77
2022/12/28 02:28:48;;;;;;;17.08;11.15;;;6.30;97.10;;;;;;5071502;28;20485;-76
2022/12/28 02:31:21;;;;;;;16.67;8.70;;;6.30;97.10;;;;;;5072685;28;20041;-78
2022/12/28 02:34:01;;;;;;;21.63;14.18;;;6.30;97.10;;;;;;5072512;28;20044;-77
2022/12/28 02:36:38;;;;;;;13.63;8.90;;;6.30;97.10;;;;;;5072846;28;20127;-78
2022/12/28 02:39:17;;;;;;;25.45;15.45;;;6.40;97.10;;;;;;5072466;28;20036;-75
2022/12/28 02:41:45;;;;;;;17.52;13.00;;;6.40;97.10;;;;;;5072415;28;20511;-76
2022/12/28 02:44:11;;;;;;;23.05;14.80;;;6.40;97.20;;;;;;5071078;28;20044;-78
2022/12/28 02:52:46;;;;;;;17.42;11.40;;;6.30;97.50;;;;;;5074547;28;20044;-74
2022/12/28 02:58:39;;;;;;;18.98;13.65;;;6.40;97.50;;;;;;5072247;28;20645;-73
2022/12/28 03:01:46;;;;;;;21.50;14.70;;;6.30;97.70;;;;;;5054636;28;20037;-77
2022/12/28 03:04:40;;;;;;;17.80;13.18;;;6.30;97.90;;;;;;5071863;28;20549;-75
2022/12/28 03:10:05;;;;;;;21.67;14.35;;;6.30;97.80;;;;;;5071767;28;20047;-75
2022/12/28 03:12:54;;;;;;;21.03;13.47;;;6.30;98.10;;;;;;5071945;28;20050;-74
2022/12/28 03:15:33;;;;;;;28.60;17.98;;;6.30;98.00;;;;;;5067233;28;20049;-77
2022/12/28 03:32:31;;;;;;;24.52;15.20;;;6.40;97.60;;;;;;5062411;28;20043;-74
2022/12/28 03:34:56;;;;;;;19.17;12.80;;;6.30;97.60;;;;;;5071666;28;20473;-77
2022/12/28 03:37:36;;;;;;;26.90;17.90;;;6.30;98.00;;;;;;5071852;28;20044;-74
2022/12/28 03:40:26;;;;;;;27.33;18.55;;;6.30;98.10;;;;;;5071643;28;20032;-78
2022/12/28 03:45:56;;;;;;;33.25;21.15;;;6.30;98.10;;;;;;5071849;28;20110;-75
2022/12/28 03:48:22;;;;;;;27.77;19.83;;;6.30;98.00;;;;;;5054699;28;20106;-75
2022/12/28 03:50:49;;;;;;;23.48;17.48;;;6.30;98.10;;;;;;5035079;28;20047;-78
2022/12/28 03:53:23;;;;;;;21.17;15.20;;;6.30;98.30;;;;;;5034850;28;20041;-75
2022/12/28 03:55:48;;;;;;;21.80;16.35;;;6.30;98.40;;;;;;5051747;28;20055;-78
2022/12/28 03:58:14;;;;;;;27.98;18.88;;;6.30;98.70;;;;;;5051633;28;20044;-78
2022/12/28 04:00:40;;;;;;;26.05;18.02;;;6.30;98.40;;;;;;5035030;28;20049;-76
2022/12/28 04:03:05;;;;;;;33.70;20.15;;;6.30;98.60;;;;;;5050898;28;20073;-76
2022/12/28 04:05:31;;;;;;;20.88;16.58;;;6.30;98.50;;;;;;5051743;28;20052;-77
2022/12/28 04:07:57;;;;;;;22.02;16.20;;;6.30;98.40;;;;;;5051536;28;20464;-76
2022/12/28 04:10:23;;;;;;;21.17;17.02;;;6.40;98.80;;;;;;5034878;28;20078;-76
2022/12/28 04:12:53;;;;;;;24.33;17.98;;;6.30;98.90;;;;;;5034709;28;20072;-76
2022/12/28 04:15:19;;;;;;;25.25;17.92;;;6.40;98.80;;;;;;5018696;28;20102;-73
2022/12/28 04:17:45;;;;;;;26.65;18.13;;;6.40;98.60;;;;;;5051131;28;20529;-75
2022/12/28 04:20:10;;;;;;;21.20;16.70;;;6.40;98.70;;;;;;5030271;28;20044;-78
2022/12/28 04:22:36;;;;;;;22.48;15.52;;;6.50;98.80;;;;;;5058630;28;20178;-79
2022/12/28 04:25:02;;;;;;;21.73;16.23;;;6.50;98.90;;;;;;5075090;28;20048;-77
2022/12/28 04:27:27;;;;;;;23.55;17.02;;;6.50;98.80;;;;;;5075254;28;20033;-76
2022/12/28 04:29:53;;;;;;;23.00;18.02;;;6.50;98.90;;;;;;5075077;28;20123;-74
2022/12/28 04:32:19;;;;;;;21.33;16.33;;;6.50;99.10;;;;;;5075085;28;20040;-75
2022/12/28 04:34:44;;;;;;;18.85;15.57;;;6.50;99.10;;;;;;5058510;28;20098;-77
2022/12/28 04:37:10;;;;;;;20.98;16.15;;;6.50;99.10;;;;;;5064151;28;20518;-77
2022/12/28 04:39:36;;;;;;;24.92;17.80;;;6.60;98.90;;;;;;5038181;28;20122;-77
2022/12/28 04:42:01;;;;;;;25.08;17.92;;;6.50;98.90;;;;;;5054759;28;20118;-78
2022/12/28 04:44:27;;;;;;;24.90;18.60;;;6.60;98.80;;;;;;5054667;28;20223;-78
2022/12/28 04:46:52;;;;;;;23.90;18.38;;;6.60;98.80;;;;;;5038165;28;20052;-77
2022/12/28 04:49:18;;;;;;;22.38;15.63;;;6.60;99.00;;;;;;5037999;28;20079;-75
2022/12/28 04:51:44;;;;;;;19.45;16.25;;;6.60;98.70;;;;;;5037872;28;20083;-75
2022/12/28 04:54:13;;;;;;;26.50;18.27;;;6.60;99.10;;;;;;5054036;28;20045;-74
2022/12/28 04:56:38;;;;;;;25.77;16.67;;;6.60;99.10;;;;;;5054433;28;20045;-75
2022/12/28 04:59:04;;;;;;;22.83;17.10;;;6.60;99.10;;;;;;5056580;28;20051;-76
2022/12/28 05:01:30;;;;;;;25.80;17.52;;;6.60;99.10;;;;;;5073682;28;20040;-76
2022/12/28 05:03:56;;;;;;;20.45;15.57;;;6.70;98.90;;;;;;5073588;28;20048;-75
2022/12/28 05:06:24;;;;;;;18.05;13.50;;;6.80;99.10;;;;;;5074164;28;20033;-78
2022/12/28 05:08:50;;;;;;;17.58;13.32;;;6.80;99.30;;;;;;5074149;28;20041;-76
2022/12/28 05:11:18;;;;;;;22.60;14.88;;;6.90;99.00;;;;;;5056429;28;20044;-76
2022/12/28 05:13:44;;;;;;;22.48;15.55;;;7.00;98.80;;;;;;5074095;28;20045;-77
2022/12/28 05:16:13;;;;;;;23.40;14.85;;;7.10;99.00;;;;;;5074043;28;20137;-76
2022/12/28 05:18:39;;;;;;;22.15;13.63;;;7.10;98.80;;;;;;5073846;28;20056;-79
2022/12/28 05:21:11;;;;;;;20.30;13.02;;;7.10;98.80;;;;;;5073852;28;20527;-76
2022/12/28 05:23:37;;;;;;;21.98;13.32;;;7.30;98.80;;;;;;5074171;28;20390;-76
2022/12/28 05:26:04;;;;;;;19.13;12.52;;;7.30;98.80;;;;;;5064480;28;20037;-76
2022/12/28 05:28:30;;;;;;;22.05;14.75;;;7.40;98.80;;;;;;5037236;28;20048;-77
2022/12/28 05:31:04;;;;;;;19.33;13.50;;;7.50;99.10;;;;;;5037272;28;20037;-77
2022/12/28 05:33:31;;;;;;;19.15;13.30;;;7.50;98.90;;;;;;5053933;28;20068;-75
2022/12/28 05:36:09;;;;;;;15.52;11.75;;;7.50;98.80;;;;;;5053552;28;20052;-75
2022/12/28 05:38:35;;;;;;;23.23;12.65;;;7.60;98.70;;;;;;5053862;28;20107;-74
2022/12/28 05:41:14;;;;;;;16.38;12.25;;;7.70;98.60;;;;;;5053695;28;20041;-75
2022/12/28 05:43:40;;;;;;;20.42;12.27;;;7.70;98.70;;;;;;5054338;28;20078;-75
2022/12/28 05:46:09;;;;;;;20.00;12.63;;;7.70;98.70;;;;;;5073675;28;20033;-77
2022/12/28 05:48:37;;;;;;;16.00;9.00;;;7.70;98.80;;;;;;5073341;28;20036;-76
2022/12/28 05:51:09;;;;;;;16.65;11.43;;;7.80;98.70;;;;;;5056892;28;20040;-78
2022/12/28 05:53:36;;;;;;;16.15;12.60;;;7.90;98.80;;;;;;5073255;28;20052;-77
2022/12/28 05:56:03;;;;;;;17.48;11.25;;;8.00;98.70;;;;;;5073227;28;20071;-76
2022/12/28 05:58:29;;;;;;;14.88;10.82;;;8.10;98.70;;;;;;5073148;28;20040;-75
2022/12/28 06:01:03;;;;;;;18.98;11.43;;;8.10;98.60;;;;;;5053347;28;20064;-76
2022/12/28 06:03:29;;;;;;;15.38;10.43;;;8.10;98.70;;;;;;5053105;28;20037;-77
2022/12/28 06:05:54;;;;;;;15.27;9.35;;;8.20;98.70;;;;;;5053344;28;20102;-76
2022/12/28 06:08:20;;;;;;;14.60;10.38;;;8.20;98.70;;;;;;5053268;28;20088;-75
2022/12/28 06:10:45;;;;;;;14.85;10.25;;;8.20;98.60;;;;;;5052894;28;20519;-79
2022/12/28 06:13:11;;;;;;;15.00;9.18;;;8.30;98.50;;;;;;5036387;28;20374;-76
2022/12/28 06:15:37;;;;;;;15.40;8.25;;;8.30;98.50;;;;;;5036339;28;20120;-76
2022/12/28 06:18:03;;;;;;;12.82;8.07;;;8.40;98.40;;;;;;5069693;28;20044;-78
2022/12/28 06:20:28;;;;;;;11.82;9.00;;;8.40;98.40;;;;;;5056078;28;20044;-76
2022/12/28 06:22:54;;;;;;;16.88;9.90;;;8.40;98.40;;;;;;5072952;28;20032;-76
2022/12/28 06:25:20;;;;;;;12.80;8.38;;;8.40;98.40;;;;;;5072513;28;20507;-76
2022/12/28 06:27:46;;;;;;;16.83;9.32;;;8.40;98.40;;;;;;5056002;28;20071;-76
2022/12/28 06:30:12;;;;;;;16.30;8.60;;;8.40;98.30;;;;;;5072497;28;20036;-76
2022/12/28 06:32:37;;;;;;;20.92;10.13;;;8.50;98.30;;;;;;5072837;28;20040;-74
2022/12/28 06:35:03;;;;;;;15.35;9.32;;;8.40;98.30;;;;;;5054942;28;20396;-76
2022/12/28 06:37:29;;;;;;;16.88;9.15;;;8.50;98.20;;;;;;5055807;28;20052;-75
2022/12/28 06:39:55;;;;;;;12.13;9.57;;;8.50;98.40;;;;;;5055730;28;20111;-76
2022/12/28 06:42:20;;;;;;;18.50;9.85;;;8.50;98.30;;;;;;5072024;28;20050;-77
2022/12/28 06:44:46;;;;;;;13.80;8.95;;;8.50;98.30;;;;;;5072169;28;20040;-77
2022/12/28 06:47:12;;;;;;;14.23;9.77;;;8.50;98.50;;;;;;5072292;28;20037;-76
2022/12/28 06:49:37;;;;;;;12.20;8.18;;;8.50;98.40;;;;;;5072216;28;20465;-78
2022/12/28 06:52:03;;;;;;;18.35;9.98;;;8.50;98.30;;;;;;5049412;28;20028;-77
2022/12/28 06:54:29;;;;;;;14.88;9.88;;;8.50;98.40;;;;;;5035584;28;20079;-75
2022/12/28 06:56:54;;;;;;;17.35;10.52;;;8.40;98.50;;;;;;5052051;28;20413;-74
2022/12/28 06:59:20;;;;;;;15.63;9.98;;;8.50;98.50;;;;;;5052263;28;20080;-74
2022/12/28 07:01:46;;;;;;;27.17;11.65;;;8.50;98.40;;;;;;5051953;28;20100;-73
2022/12/28 07:04:11;;;;;;;21.85;11.55;;;8.50;98.50;;;;;;5054093;28;20106;-74
2022/12/28 07:06:42;;;;;;;16.95;10.07;;;8.50;98.40;;;;;;5062856;28;20028;-76
2022/12/28 07:09:12;;;;;;;24.00;11.48;;;8.50;98.50;;;;;;5065098;28;20037;-74
2022/12/28 07:11:37;;;;;;;24.02;11.25;;;8.50;98.60;;;;;;5053929;28;20090;-73
2022/12/28 07:14:03;;;;;;;21.25;11.18;;;8.50;98.60;;;;;;5061739;28;20037;-74
2022/12/28 07:16:29;;;;;;;25.35;10.90;;;8.50;98.60;;;;;;5060497;28;20586;-75
2022/12/28 07:18:57;;;;;;;25.75;10.77;;;8.50;98.60;;;;;;5045739;28;20051;-75
2022/12/28 07:21:25;;;;;;;16.92;7.28;;;8.50;98.60;;;;;;5061119;28;20045;-74
2022/12/28 07:23:52;;;;;;;26.25;10.43;;;8.60;98.60;;;;;;5059905;28;20401;-74
2022/12/28 07:26:21;;;;;;;16.15;6.65;;;8.70;98.40;;;;;;5062132;28;20400;-76
2022/12/28 07:28:49;;;;;;;20.30;9.85;;;8.60;98.50;;;;;;5061939;28;20181;-75
2022/12/28 07:31:25;;;;;;;25.65;9.98;;;8.60;98.40;;;;;;5060026;28;20068;-77
2022/12/28 07:33:52;;;;;;;22.48;9.65;;;8.70;98.40;;;;;;5060201;28;20051;-73
2022/12/28 07:36:20;;;;;;;21.90;10.63;;;8.70;98.30;;;;;;5060344;28;20043;-75
2022/12/28 07:38:46;;;;;;;20.35;8.88;;;8.70;98.40;;;;;;5044032;28;20123;-74
2022/12/28 07:41:15;;;;;;;21.42;9.55;;;8.70;98.50;;;;;;5061985;28;20047;-72
2022/12/28 07:43:41;;;;;;;24.45;10.30;;;8.70;98.40;;;;;;5059548;28;20409;-73
2022/12/28 07:46:15;;;;;;;18.13;9.15;;;8.80;98.30;;;;;;5042900;28;20033;-75
2022/12/28 07:48:42;;;;;;;15.93;9.02;;;8.70;98.30;;;;;;5051491;28;20123;-75
2022/12/28 07:51:21;;;;;;;19.70;10.02;;;8.70;98.40;;;;;;5034873;28;20037;-74
2022/12/28 07:53:48;;;;;;;19.45;10.27;;;8.70;98.40;;;;;;5052218;28;20499;-74
2022/12/28 07:56:15;;;;;;;18.15;8.38;;;8.70;98.40;;;;;;5055249;28;20052;-75
2022/12/28 07:58:41;;;;;;;29.63;12.07;;;8.70;98.40;;;;;;5022317;28;20045;-73
2022/12/28 08:01:12;;;;;;;20.80;11.82;;;8.70;98.20;;;;;;5055371;28;20049;-75
2022/12/28 08:03:39;;;;;;;24.05;13.10;;;8.60;98.20;;;;;;5038744;28;20041;-72
2022/12/28 08:06:06;;;;;;;15.18;8.57;;;8.60;98.30;;;;;;5055274;28;20040;-75
2022/12/28 08:08:37;;;;;;;27.35;11.27;;;8.60;98.30;;;;;;5061131;28;20511;-74
2022/12/28 08:11:09;;;;;;;20.38;10.60;;;8.60;98.30;;;;;;5065841;28;20047;-74
2022/12/28 08:13:36;;;;;;;15.32;9.93;;;8.60;98.30;;;;;;5042350;28;20048;-74
2022/12/28 08:16:04;;;;;;;19.45;12.80;;;8.70;98.40;;;;;;5074933;28;20083;-76
2022/12/28 08:18:30;;;;;;;15.32;11.32;;;8.70;98.30;;;;;;5058090;28;20085;-76
2022/12/28 08:21:01;;;;;;;19.98;10.85;;;8.60;98.30;;;;;;5054743;28;20055;-75
2022/12/28 08:23:28;;;;;;;19.30;11.60;;;8.60;98.40;;;;;;5054924;28;20056;-76
2022/12/28 08:25:53;;;;;;;15.23;10.32;;;8.60;98.30;;;;;;5022290;28;20381;-77
2022/12/28 08:28:19;;;;;;;15.85;9.85;;;8.60;98.40;;;;;;5054968;28;20037;-73
2022/12/28 08:30:45;;;;;;;14.82;9.73;;;8.60;98.50;;;;;;5038171;28;20045;-75
2022/12/28 08:33:10;;;;;;;13.43;7.85;;;8.50;98.50;;;;;;5061974;28;20037;-76
2022/12/28 08:35:36;;;;;;;15.02;7.80;;;8.50;98.50;;;;;;5058360;28;20032;-75
2022/12/28 08:38:02;;;;;;;12.38;8.02;;;8.60;98.40;;;;;;5058070;28;20036;-76
2022/12/28 08:40:28;;;;;;;8.45;5.70;;;8.60;98.40;;;;;;5058185;28;20083;-76
2022/12/28 08:42:58;;;;;;;7.00;5.28;;;8.60;98.60;;;;;;5074904;28;20528;-74
2022/12/28 08:45:24;;;;;;;4.50;3.97;;;8.60;98.60;;;;;;5057965;28;20043;-75
2022/12/28 08:47:51;;;;;;;8.02;4.55;;;8.80;98.60;;;;;;5073511;28;20109;-78
2022/12/28 08:50:16;;;;;;;6.22;4.30;;;8.80;98.60;;;;;;5054476;28;20037;-73
2022/12/28 08:52:42;;;;;;;5.78;4.78;;;8.80;98.60;;;;;;5054497;28;20044;-75
2022/12/28 08:55:08;;;;;;;10.18;7.28;;;8.80;98.50;;;;;;5037849;28;20047;-75
2022/12/28 08:57:34;;;;;;;8.07;5.70;;;8.80;98.60;;;;;;5072720;28;20040;-76
2022/12/28 08:59:59;;;;;;;6.05;4.72;;;8.80;98.70;;;;;;5068327;28;20048;-74
2022/12/28 09:02:25;;;;;;;7.15;4.80;;;8.80;98.70;;;;;;5063264;28;20032;-76
2022/12/28 09:04:50;;;;;;;9.27;5.63;;;8.80;98.70;;;;;;5068816;28;20110;-75
2022/12/28 09:07:16;;;;;;;9.38;5.60;;;8.80;98.80;;;;;;5074218;28;20036;-76
2022/12/28 09:09:42;;;;;;;8.82;6.03;;;8.80;98.80;;;;;;5074441;28;20199;-72
2022/12/28 09:12:07;;;;;;;8.73;6.40;;;8.80;98.80;;;;;;5074040;28;20408;-78
2022/12/28 09:14:33;;;;;;;10.43;5.63;;;8.90;98.70;;;;;;5074006;28;20089;-75
2022/12/28 09:17:00;;;;;;;8.45;6.95;;;9.00;98.80;;;;;;5074037;28;20045;-75
2022/12/28 09:19:26;;;;;;;12.90;7.50;;;9.00;98.70;;;;;;5057174;28;20143;-76
2022/12/28 09:21:54;;;;;;;8.40;6.43;;;9.10;98.60;;;;;;5039785;28;20080;-75
2022/12/28 09:24:20;;;;;;;13.32;7.53;;;9.10;98.70;;;;;;5067222;28;20044;-75
2022/12/28 09:26:47;;;;;;;8.90;5.50;;;9.10;98.70;;;;;;5053721;28;20045;-77
2022/12/28 09:29:13;;;;;;;6.85;4.13;;;9.10;98.50;;;;;;5053790;28;20043;-78
2022/12/28 09:31:40;;;;;;;5.80;3.80;;;9.10;98.60;;;;;;5053950;28;20040;-76
2022/12/28 09:34:12;;;;;;;7.55;4.32;;;9.10;98.60;;;;;;5053684;28;20048;-74
2022/12/28 09:36:44;;;;;;;13.23;8.82;;;9.10;98.50;;;;;;5053639;28;20052;-76
2022/12/28 09:39:16;;;;;;;6.28;3.50;;;9.20;98.50;;;;;;5036907;28;20049;-74
2022/12/28 09:41:56;;;;;;;4.68;2.70;;;9.10;98.70;;;;;;5037220;28;20041;-75
2022/12/28 09:44:31;;;;;;;5.85;4.70;;;9.10;98.60;;;;;;5053410;28;20489;-75
2022/12/28 09:47:38;;;;;;;6.78;5.13;;;9.10;98.70;;;;;;5053755;28;20431;-75
2022/12/28 09:50:17;;;;;;;7.97;5.65;;;9.10;98.60;;;;;;5036775;28;20041;-76
2022/12/28 09:53:02;;;;;;;7.90;6.03;;;9.00;98.60;;;;;;5053601;28;20094;-77
2022/12/28 09:55:28;;;;;;;7.15;5.55;;;9.10;98.60;;;;;;5058491;28;20045;-76
2022/12/28 09:57:56;;;;;;;8.15;6.97;;;9.10;98.60;;;;;;5053209;28;20049;-75
2022/12/28 10:00:27;;;;;;;11.82;9.50;;;9.00;98.60;;;;;;5052985;28;20072;-77
2022/12/28 10:02:59;;;;;;;10.05;8.38;;;9.00;98.60;;;;;;5053245;28;20036;-76
2022/12/28 10:05:25;;;;;;;14.23;11.05;;;9.00;98.70;;;;;;5051635;28;20048;-77
2022/12/28 10:07:53;;;;;;;7.65;6.75;;;9.00;98.80;;;;;;5035045;28;20088;-73
2022/12/28 10:10:22;;;;;;;11.18;8.00;;;8.90;98.80;;;;;;5051204;28;20045;-74
2022/12/28 10:12:49;;;;;;;10.30;9.20;;;8.90;98.80;;;;;;5052707;28;20037;-75
2022/12/28 10:15:16;;;;;;;14.40;9.45;;;8.90;98.80;;;;;;5051600;28;20049;-76
2022/12/28 10:17:42;;;;;;;11.40;8.65;;;8.90;98.80;;;;;;5035437;28;20052;-76
2022/12/28 10:20:21;;;;;;;18.38;13.82;;;8.90;98.70;;;;;;5052677;28;20087;-73
2022/12/28 10:22:52;;;;;;;18.27;12.70;;;8.80;98.80;;;;;;5052766;28;20118;-76
2022/12/28 10:25:21;;;;;;;60.78;42.92;;;8.80;99.00;;;;;;5052576;28;20056;-74
2022/12/28 10:27:47;;;;;;;63.60;38.55;;;8.70;99.00;;;;;;5052434;28;20373;-74
2022/12/28 10:30:25;;;;;;;24.25;15.63;;;8.80;98.90;;;;;;5036066;28;20095;-76
2022/12/28 10:32:52;;;;;;;48.50;31.10;;;8.80;99.10;;;;;;5052673;28;20072;-77
2022/12/28 10:35:41;;;;;;;73.32;43.45;;;8.80;99.10;;;;;;5036202;28;20044;-75
2022/12/28 10:38:21;;;;;;;21.15;10.25;;;8.90;99.20;;;;;;5052494;28;20123;-73
2022/12/28 10:41:02;;;;;;;17.88;10.32;;;8.90;99.30;;;;;;5052545;28;20505;-74
2022/12/28 10:43:40;;;;;;;15.07;9.57;;;8.90;99.10;;;;;;5052526;28;20511;-74
2022/12/28 10:46:13;;;;;;;16.50;8.60;;;9.00;99.10;;;;;;5052048;28;20445;-77
2022/12/28 10:48:42;;;;;;;14.13;9.50;;;9.00;99.10;;;;;;5052401;28;20049;-75
2022/12/28 10:51:14;;;;;;;17.23;10.38;;;9.00;99.00;;;;;;5052172;28;20035;-73
2022/12/28 10:53:50;;;;;;;15.45;9.65;;;8.90;99.10;;;;;;5052349;28;20509;-76
2022/12/28 10:56:20;;;;;;;15.77;8.63;;;8.90;99.00;;;;;;5052205;28;20540;-75
2022/12/28 10:58:55;;;;;;;16.83;10.57;;;8.90;99.00;;;;;;5052311;28;20041;-74
2022/12/28 11:01:29;;;;;;;17.58;11.25;;;8.80;99.10;;;;;;5052455;28;20041;-75
2022/12/28 11:03:54;;;;;;;13.52;10.15;;;8.80;99.10;;;;;;5071955;28;20051;-77
2022/12/28 11:06:31;;;;;;;13.75;9.63;;;8.80;99.10;;;;;;5072257;28;20044;-76
2022/12/28 11:09:14;;;;;;;17.77;10.82;;;8.80;99.10;;;;;;5068855;28;20036;-75
2022/12/28 11:11:41;;;;;;;23.33;16.05;;;8.80;99.20;;;;;;5070562;28;20083;-75
2022/12/28 11:14:31;;;;;;;17.92;13.48;;;8.70;99.20;;;;;;5070348;28;20040;-73
2022/12/28 11:17:06;;;;;;;19.95;15.05;;;8.50;99.00;;;;;;5066697;28;20488;-71
2022/12/28 11:19:31;;;;;;;17.52;12.90;;;8.50;99.10;;;;;;5065829;28;20073;-73
2022/12/28 11:21:57;;;;;;;16.42;11.95;;;8.40;99.20;;;;;;5053638;28;20505;-77
2022/12/28 11:24:25;;;;;;;11.98;10.00;;;8.40;99.20;;;;;;5070050;28;20485;-75
2022/12/28 11:26:51;;;;;;;14.10;11.38;;;8.30;99.20;;;;;;5069967;28;20411;-73
2022/12/28 11:29:18;;;;;;;12.30;10.52;;;8.20;99.30;;;;;;5068741;28;20033;-76
2022/12/28 11:31:50;;;;;;;16.65;12.15;;;8.20;99.30;;;;;;5070468;28;20094;-74
2022/12/28 11:34:22;;;;;;;15.98;12.77;;;8.20;99.40;;;;;;5070278;28;20472;-73
2022/12/28 11:36:48;;;;;;;14.68;12.15;;;8.20;99.50;;;;;;5069115;28;20119;-73
2022/12/28 11:39:30;;;;;;;16.15;12.57;;;8.10;99.50;;;;;;5068721;28;20041;-76
2022/12/28 11:41:58;;;;;;;15.70;12.00;;;8.20;99.50;;;;;;5070245;28;20052;-74
2022/12/28 11:44:29;;;;;;;15.18;11.13;;;8.20;99.50;;;;;;5069545;28;20076;-77
2022/12/28 11:47:00;;;;;;;21.10;14.68;;;8.20;99.40;;;;;;5069794;28;20047;-78
2022/12/28 11:49:32;;;;;;;14.55;12.20;;;8.20;99.40;;;;;;5069025;28;20037;-78
2022/12/28 11:52:16;;;;;;;13.98;11.38;;;8.20;99.50;;;;;;5070510;28;20063;-79
2022/12/28 11:54:57;;;;;;;14.80;9.98;;;8.20;99.50;;;;;;5068581;28;20044;-77
2022/12/28 11:57:43;;;;;;;12.93;10.07;;;8.20;99.40;;;;;;5053297;28;20051;-77
2022/12/28 12:00:18;;;;;;;11.73;9.70;;;8.20;99.50;;;;;;5052524;28;20481;-77
2022/12/28 12:02:51;;;;;;;14.27;10.52;;;8.20;99.50;;;;;;5052262;28;20456;-75
2022/12/28 12:05:38;;;;;;;12.48;10.10;;;8.20;99.40;;;;;;5069050;28;20751;-78
2022/12/28 12:08:15;;;;;;;14.00;10.98;;;8.20;99.40;;;;;;5067744;28;20040;-79
2022/12/28 12:11:07;;;;;;;12.25;10.93;;;8.20;99.40;;;;;;5068923;28;20048;-75
2022/12/28 12:13:43;;;;;;;14.88;12.05;;;8.20;99.50;;;;;;5065474;28;20090;-74
2022/12/28 12:16:32;;;;;;;16.27;12.40;;;8.10;99.50;;;;;;5069570;28;20044;-79
2022/12/28 12:18:59;;;;;;;14.43;11.70;;;8.20;99.50;;;;;;5051932;28;20413;-77
2022/12/28 12:21:31;;;;;;;15.43;11.93;;;8.20;99.60;;;;;;5069363;28;20484;-76
2022/12/28 12:24:13;;;;;;;16.27;12.55;;;8.20;99.50;;;;;;5066229;28;20463;-76
2022/12/28 12:26:45;;;;;;;15.93;10.95;;;8.20;99.60;;;;;;5065959;28;20519;-78
2022/12/28 12:29:28;;;;;;;13.82;11.00;;;8.20;99.60;;;;;;5068650;28;20048;-78
2022/12/28 12:32:04;;;;;;;13.05;11.63;;;8.20;99.50;;;;;;5069621;28;20042;-76
2022/12/28 12:34:45;;;;;;;15.52;11.43;;;8.20;99.60;;;;;;5064180;28;20117;-77
2022/12/28 12:37:38;;;;;;;12.93;10.00;;;8.20;99.50;;;;;;5069353;28;20131;-77
2022/12/28 12:40:29;;;;;;;10.98;9.25;;;8.20;99.50;;;;;;5051159;28;20130;-75
2022/12/28 12:43:21;;;;;;;10.20;9.20;;;8.10;99.50;;;;;;5071342;28;20063;-79
2022/12/28 12:46:32;;;;;;;9.20;7.93;;;8.10;99.50;;;;;;5038093;28;20120;-77
2022/12/28 12:49:16;;;;;;;10.25;8.50;;;8.10;99.50;;;;;;5031221;28;20107;-77
2022/12/28 12:52:02;;;;;;;12.73;9.75;;;8.10;99.50;;;;;;5054892;28;20392;-78
2022/12/28 12:54:55;;;;;;;11.65;9.55;;;8.10;99.50;;;;;;5038263;28;20106;-77
2022/12/28 12:57:31;;;;;;;13.20;10.02;;;8.10;99.50;;;;;;5062376;28;20408;-79
2022/12/28 13:00:14;;;;;;;17.55;10.40;;;8.10;99.40;;;;;;5063996;28;20105;-76
2022/12/28 13:02:55;;;;;;;10.48;8.95;;;8.10;99.50;;;;;;5069478;28;20087;-77
2022/12/28 13:05:25;;;;;;;13.90;9.23;;;8.10;99.50;;;;;;5048427;28;20044;-77
2022/12/28 13:07:55;;;;;;;13.73;10.38;;;8.10;99.40;;;;;;5061579;28;20041;-76
2022/12/28 13:10:43;;;;;;;10.07;8.13;;;8.10;99.40;;;;;;5063953;28;20039;-75
2022/12/28 13:13:20;;;;;;;12.20;8.38;;;8.10;99.30;;;;;;5063726;28;20037;-73
2022/12/28 13:15:46;;;;;;;10.82;8.93;;;8.00;99.30;;;;;;5052041;28;20051;-78
2022/12/28 13:18:17;;;;;;;10.40;9.32;;;8.10;99.30;;;;;;5062666;28;20412;-75
2022/12/28 13:20:58;;;;;;;10.68;8.55;;;8.00;99.40;;;;;;5068806;28;20131;-76
2022/12/28 13:23:25;;;;;;;9.30;7.78;;;8.10;99.30;;;;;;5072331;28;20040;-76
2022/12/28 13:25:54;;;;;;;10.80;7.65;;;8.10;99.20;;;;;;5072285;28;20087;-76
2022/12/28 13:28:25;;;;;;;10.23;6.65;;;8.10;99.30;;;;;;5072167;28;20124;-77
2022/12/28 13:31:19;;;;;;;13.38;7.88;;;8.10;99.20;;;;;;5072072;28;20068;-72